sensor_id;sensor_type;location;lat;lon;timestamp;P1;durP1;ratioP1;P2;durP2;ratioP2
64842;SDS011;51310;52.198;5.422;2023-05-31T00:00:21;12.10;;;5.30;;
64842;SDS011;51310;52.198;5.422;2023-05-31T00:02:47;14.20;;;5.95;;
64842;SDS011;51310;52.198;5.422;2023-05-31T00:05:12;9.93;;;5.20;;
64842;SDS011;51310;52.198;5.422;2023-05-31T00:07:38;9.57;;;5.10;;
64842;SDS011;51310;52.198;5.422;2023-05-31T00:10:04;12.60;;;5.77;;
64842;SDS011;51310;52.198;5.422;2023-05-31T00:12:30;11.23;;;5.30;;
64842;SDS011;51310;52.198;5.422;2023-05-31T00:14:56;8.77;;;5.07;;
64842;SDS011;51310;52.198;5.422;2023-05-31T00:17:22;10.48;;;5.35;;
64842;SDS011;51310;52.198;5.422;2023-05-31T00:19:47;9.18;;;5.20;;
64842;SDS011;51310;52.198;5.422;2023-05-31T00:22:13;11.68;;;5.63;;
64842;SDS011;51310;52.198;5.422;2023-05-31T00:24:41;11.40;;;5.53;;
64842;SDS011;51310;52.198;5.422;2023-05-31T00:27:08;11.73;;;5.00;;
64842;SDS011;51310;52.198;5.422;2023-05-31T00:29:34;10.98;;;5.22;;
64842;SDS011;51310;52.198;5.422;2023-05-31T00:32:00;12.23;;;5.35;;
64842;SDS011;51310;52.198;5.422;2023-05-31T00:34:26;10.35;;;5.30;;
64842;SDS011;51310;52.198;5.422;2023-05-31T00:36:51;12.07;;;5.63;;
64842;SDS011;51310;52.198;5.422;2023-05-31T00:39:17;10.63;;;5.30;;
64842;SDS011;51310;52.198;5.422;2023-05-31T00:41:43;7.82;;;4.53;;
64842;SDS011;51310;52.198;5.422;2023-05-31T00:44:09;10.40;;;5.57;;
64842;SDS011;51310;52.198;5.422;2023-05-31T00:46:36;14.18;;;5.50;;
64842;SDS011;51310;52.198;5.422;2023-05-31T00:49:03;12.40;;;5.28;;
64842;SDS011;51310;52.198;5.422;2023-05-31T00:51:30;10.85;;;5.32;;
64842;SDS011;51310;52.198;5.422;2023-05-31T00:53:58;10.23;;;5.28;;
64842;SDS011;51310;52.198;5.422;2023-05-31T00:56:25;11.85;;;5.90;;
64842;SDS011;51310;52.198;5.422;2023-05-31T00:58:52;13.95;;;6.78;;
64842;SDS011;51310;52.198;5.422;2023-05-31T01:01:24;9.98;;;5.10;;
64842;SDS011;51310;52.198;5.422;2023-05-31T01:03:54;12.55;;;5.55;;
64842;SDS011;51310;52.198;5.422;2023-05-31T01:06:21;10.57;;;5.88;;
64842;SDS011;51310;52.198;5.422;2023-05-31T01:08:53;10.27;;;5.75;;
64842;SDS011;51310;52.198;5.422;2023-05-31T01:11:24;11.38;;;5.63;;
64842;SDS011;51310;52.198;5.422;2023-05-31T01:14:12;15.40;;;5.73;;
64842;SDS011;51310;52.198;5.422;2023-05-31T01:16:54;7.95;;;4.85;;
64842;SDS011;51310;52.198;5.422;2023-05-31T01:19:56;10.65;;;5.97;;
64842;SDS011;51310;52.198;5.422;2023-05-31T01:22:40;11.90;;;6.05;;
64842;SDS011;51310;52.198;5.422;2023-05-31T01:25:25;9.32;;;5.75;;
64842;SDS011;51310;52.198;5.422;2023-05-31T01:28:19;13.93;;;6.18;;
64842;SDS011;51310;52.198;5.422;2023-05-31T01:30:49;11.47;;;5.80;;
64842;SDS011;51310;52.198;5.422;2023-05-31T01:33:16;11.68;;;5.82;;
64842;SDS011;51310;52.198;5.422;2023-05-31T01:35:44;11.27;;;5.90;;
64842;SDS011;51310;52.198;5.422;2023-05-31T01:38:10;11.27;;;5.95;;
64842;SDS011;51310;52.198;5.422;2023-05-31T01:40:35;10.52;;;6.32;;
64842;SDS011;51310;52.198;5.422;2023-05-31T01:43:03;12.97;;;7.23;;
64842;SDS011;51310;52.198;5.422;2023-05-31T01:45:31;15.48;;;7.80;;
64842;SDS011;51310;52.198;5.422;2023-05-31T01:48:03;15.15;;;8.00;;
64842;SDS011;51310;52.198;5.422;2023-05-31T01:50:33;14.87;;;7.60;;
64842;SDS011;51310;52.198;5.422;2023-05-31T01:53:00;16.77;;;7.57;;
64842;SDS011;51310;52.198;5.422;2023-05-31T01:55:27;12.93;;;8.00;;
64842;SDS011;51310;52.198;5.422;2023-05-31T01:57:53;13.35;;;7.68;;
64842;SDS011;51310;52.198;5.422;2023-05-31T02:00:21;9.93;;;6.93;;
64842;SDS011;51310;52.198;5.422;2023-05-31T02:02:49;14.55;;;7.35;;
64842;SDS011;51310;52.198;5.422;2023-05-31T02:05:16;11.07;;;7.03;;
64842;SDS011;51310;52.198;5.422;2023-05-31T02:07:43;14.90;;;7.25;;
64842;SDS011;51310;52.198;5.422;2023-05-31T02:10:11;12.05;;;6.63;;
64842;SDS011;51310;52.198;5.422;2023-05-31T02:12:37;12.82;;;6.68;;
64842;SDS011;51310;52.198;5.422;2023-05-31T02:15:04;15.27;;;7.07;;
64842;SDS011;51310;52.198;5.422;2023-05-31T02:17:44;9.85;;;5.85;;
64842;SDS011;51310;52.198;5.422;2023-05-31T02:20:15;13.18;;;6.97;;
64842;SDS011;51310;52.198;5.422;2023-05-31T02:22:42;17.65;;;7.82;;
64842;SDS011;51310;52.198;5.422;2023-05-31T02:25:10;13.35;;;6.32;;
64842;SDS011;51310;52.198;5.422;2023-05-31T02:27:39;18.48;;;6.85;;
64842;SDS011;51310;52.198;5.422;2023-05-31T02:30:06;13.60;;;6.38;;
64842;SDS011;51310;52.198;5.422;2023-05-31T02:32:33;11.97;;;6.70;;
64842;SDS011;51310;52.198;5.422;2023-05-31T02:35:01;11.87;;;6.30;;
64842;SDS011;51310;52.198;5.422;2023-05-31T02:37:32;13.37;;;6.03;;
64842;SDS011;51310;52.198;5.422;2023-05-31T02:39:59;11.38;;;6.03;;
64842;SDS011;51310;52.198;5.422;2023-05-31T02:42:25;9.45;;;5.80;;
64842;SDS011;51310;52.198;5.422;2023-05-31T02:44:50;12.50;;;6.90;;
64842;SDS011;51310;52.198;5.422;2023-05-31T02:47:16;12.27;;;6.50;;
64842;SDS011;51310;52.198;5.422;2023-05-31T02:49:42;14.00;;;7.07;;
64842;SDS011;51310;52.198;5.422;2023-05-31T02:52:08;12.33;;;6.80;;
64842;SDS011;51310;52.198;5.422;2023-05-31T02:54:33;12.90;;;6.87;;
64842;SDS011;51310;52.198;5.422;2023-05-31T02:56:59;14.27;;;7.17;;
64842;SDS011;51310;52.198;5.422;2023-05-31T02:59:25;13.67;;;6.57;;
64842;SDS011;51310;52.198;5.422;2023-05-31T03:01:51;15.00;;;6.97;;
64842;SDS011;51310;52.198;5.422;2023-05-31T03:04:17;11.63;;;6.65;;
64842;SDS011;51310;52.198;5.422;2023-05-31T03:06:43;14.35;;;7.03;;
64842;SDS011;51310;52.198;5.422;2023-05-31T03:09:08;11.95;;;6.05;;
64842;SDS011;51310;52.198;5.422;2023-05-31T03:11:39;14.10;;;6.93;;
64842;SDS011;51310;52.198;5.422;2023-05-31T03:14:04;13.00;;;6.77;;
64842;SDS011;51310;52.198;5.422;2023-05-31T03:16:30;14.63;;;6.90;;
64842;SDS011;51310;52.198;5.422;2023-05-31T03:18:56;14.83;;;7.73;;
64842;SDS011;51310;52.198;5.422;2023-05-31T03:21:22;14.87;;;7.00;;
64842;SDS011;51310;52.198;5.422;2023-05-31T03:23:47;15.33;;;7.93;;
64842;SDS011;51310;52.198;5.422;2023-05-31T03:26:13;18.50;;;7.53;;
64842;SDS011;51310;52.198;5.422;2023-05-31T03:28:39;15.57;;;7.03;;
64842;SDS011;51310;52.198;5.422;2023-05-31T03:31:05;13.70;;;7.05;;
64842;SDS011;51310;52.198;5.422;2023-05-31T03:33:30;16.20;;;7.50;;
64842;SDS011;51310;52.198;5.422;2023-05-31T03:35:57;14.82;;;7.80;;
64842;SDS011;51310;52.198;5.422;2023-05-31T03:38:22;21.13;;;8.23;;
64842;SDS011;51310;52.198;5.422;2023-05-31T03:40:48;17.67;;;7.55;;
64842;SDS011;51310;52.198;5.422;2023-05-31T03:43:14;15.27;;;7.43;;
64842;SDS011;51310;52.198;5.422;2023-05-31T03:45:40;13.48;;;7.55;;
64842;SDS011;51310;52.198;5.422;2023-05-31T03:48:05;14.80;;;8.20;;
64842;SDS011;51310;52.198;5.422;2023-05-31T03:50:31;14.53;;;6.70;;
64842;SDS011;51310;52.198;5.422;2023-05-31T03:52:57;14.93;;;7.83;;
64842;SDS011;51310;52.198;5.422;2023-05-31T03:55:22;15.50;;;8.27;;
64842;SDS011;51310;52.198;5.422;2023-05-31T03:57:50;14.63;;;7.50;;
64842;SDS011;51310;52.198;5.422;2023-05-31T04:00:15;18.60;;;8.40;;
64842;SDS011;51310;52.198;5.422;2023-05-31T04:02:42;17.25;;;8.82;;
64842;SDS011;51310;52.198;5.422;2023-05-31T04:05:07;13.43;;;7.50;;
64842;SDS011;51310;52.198;5.422;2023-05-31T04:07:33;15.57;;;8.10;;
64842;SDS011;51310;52.198;5.422;2023-05-31T04:09:59;17.93;;;8.20;;
64842;SDS011;51310;52.198;5.422;2023-05-31T04:12:24;14.48;;;8.50;;
64842;SDS011;51310;52.198;5.422;2023-05-31T04:14:50;17.33;;;8.32;;
64842;SDS011;51310;52.198;5.422;2023-05-31T04:17:16;18.08;;;7.57;;
64842;SDS011;51310;52.198;5.422;2023-05-31T04:19:42;19.05;;;8.77;;
64842;SDS011;51310;52.198;5.422;2023-05-31T04:22:07;15.63;;;8.13;;
64842;SDS011;51310;52.198;5.422;2023-05-31T04:24:33;17.17;;;9.10;;
64842;SDS011;51310;52.198;5.422;2023-05-31T04:26:59;16.08;;;8.85;;
64842;SDS011;51310;52.198;5.422;2023-05-31T04:29:28;19.05;;;8.13;;
64842;SDS011;51310;52.198;5.422;2023-05-31T04:31:54;17.23;;;8.10;;
64842;SDS011;51310;52.198;5.422;2023-05-31T04:34:21;16.23;;;7.97;;
64842;SDS011;51310;52.198;5.422;2023-05-31T04:36:46;17.13;;;8.60;;
64842;SDS011;51310;52.198;5.422;2023-05-31T04:39:14;16.27;;;8.40;;
64842;SDS011;51310;52.198;5.422;2023-05-31T04:41:41;16.17;;;7.70;;
64842;SDS011;51310;52.198;5.422;2023-05-31T04:44:07;18.27;;;7.93;;
64842;SDS011;51310;52.198;5.422;2023-05-31T04:46:33;23.33;;;9.00;;
64842;SDS011;51310;52.198;5.422;2023-05-31T04:48:58;22.92;;;9.45;;
64842;SDS011;51310;52.198;5.422;2023-05-31T04:51:25;18.77;;;9.82;;
64842;SDS011;51310;52.198;5.422;2023-05-31T04:53:52;15.88;;;9.20;;
64842;SDS011;51310;52.198;5.422;2023-05-31T04:56:17;18.48;;;8.05;;
64842;SDS011;51310;52.198;5.422;2023-05-31T04:58:43;15.48;;;8.07;;
64842;SDS011;51310;52.198;5.422;2023-05-31T05:01:09;14.02;;;7.63;;
64842;SDS011;51310;52.198;5.422;2023-05-31T05:03:39;14.73;;;7.63;;
64842;SDS011;51310;52.198;5.422;2023-05-31T05:06:12;17.53;;;8.30;;
64842;SDS011;51310;52.198;5.422;2023-05-31T05:08:41;15.55;;;7.57;;
64842;SDS011;51310;52.198;5.422;2023-05-31T05:11:10;15.25;;;7.68;;
64842;SDS011;51310;52.198;5.422;2023-05-31T05:13:37;16.00;;;8.30;;
64842;SDS011;51310;52.198;5.422;2023-05-31T05:16:03;18.52;;;8.50;;
64842;SDS011;51310;52.198;5.422;2023-05-31T05:18:29;17.08;;;7.68;;
64842;SDS011;51310;52.198;5.422;2023-05-31T05:20:56;15.15;;;7.60;;
64842;SDS011;51310;52.198;5.422;2023-05-31T05:23:23;16.38;;;8.18;;
64842;SDS011;51310;52.198;5.422;2023-05-31T05:25:49;18.50;;;8.00;;
64842;SDS011;51310;52.198;5.422;2023-05-31T05:28:15;16.35;;;8.13;;
64842;SDS011;51310;52.198;5.422;2023-05-31T05:30:41;17.58;;;7.47;;
64842;SDS011;51310;52.198;5.422;2023-05-31T05:33:06;16.33;;;7.88;;
64842;SDS011;51310;52.198;5.422;2023-05-31T05:35:32;18.05;;;7.93;;
64842;SDS011;51310;52.198;5.422;2023-05-31T05:37:58;15.88;;;7.93;;
64842;SDS011;51310;52.198;5.422;2023-05-31T05:40:25;18.92;;;8.20;;
64842;SDS011;51310;52.198;5.422;2023-05-31T05:42:53;13.00;;;6.90;;
64842;SDS011;51310;52.198;5.422;2023-05-31T05:45:19;15.65;;;8.13;;
64842;SDS011;51310;52.198;5.422;2023-05-31T05:47:45;14.15;;;7.40;;
64842;SDS011;51310;52.198;5.422;2023-05-31T05:50:11;15.10;;;7.80;;
64842;SDS011;51310;52.198;5.422;2023-05-31T05:52:37;17.77;;;8.40;;
64842;SDS011;51310;52.198;5.422;2023-05-31T05:55:06;13.57;;;7.25;;
64842;SDS011;51310;52.198;5.422;2023-05-31T05:57:32;13.57;;;7.55;;
64842;SDS011;51310;52.198;5.422;2023-05-31T05:59:58;18.83;;;7.72;;
64842;SDS011;51310;52.198;5.422;2023-05-31T06:02:24;18.67;;;8.55;;
64842;SDS011;51310;52.198;5.422;2023-05-31T06:04:50;19.13;;;7.82;;
64842;SDS011;51310;52.198;5.422;2023-05-31T06:07:16;16.03;;;7.13;;
64842;SDS011;51310;52.198;5.422;2023-05-31T06:09:42;15.95;;;7.75;;
64842;SDS011;51310;52.198;5.422;2023-05-31T06:12:08;17.67;;;7.13;;
64842;SDS011;51310;52.198;5.422;2023-05-31T06:14:34;13.30;;;7.78;;
64842;SDS011;51310;52.198;5.422;2023-05-31T06:17:00;15.65;;;7.07;;
64842;SDS011;51310;52.198;5.422;2023-05-31T06:19:25;14.48;;;6.95;;
64842;SDS011;51310;52.198;5.422;2023-05-31T06:21:51;16.93;;;7.90;;
64842;SDS011;51310;52.198;5.422;2023-05-31T06:24:18;13.48;;;7.30;;
64842;SDS011;51310;52.198;5.422;2023-05-31T06:26:44;16.92;;;8.05;;
64842;SDS011;51310;52.198;5.422;2023-05-31T06:29:10;19.23;;;8.02;;
64842;SDS011;51310;52.198;5.422;2023-05-31T06:31:36;17.40;;;7.90;;
64842;SDS011;51310;52.198;5.422;2023-05-31T06:34:03;12.73;;;6.90;;
64842;SDS011;51310;52.198;5.422;2023-05-31T06:36:29;17.90;;;8.02;;
64842;SDS011;51310;52.198;5.422;2023-05-31T06:38:56;16.70;;;7.25;;
64842;SDS011;51310;52.198;5.422;2023-05-31T06:41:23;15.95;;;7.32;;
64842;SDS011;51310;52.198;5.422;2023-05-31T06:43:50;13.32;;;7.32;;
64842;SDS011;51310;52.198;5.422;2023-05-31T06:46:15;15.33;;;7.50;;
64842;SDS011;51310;52.198;5.422;2023-05-31T06:48:41;17.23;;;8.27;;
64842;SDS011;51310;52.198;5.422;2023-05-31T06:51:07;16.30;;;7.93;;
64842;SDS011;51310;52.198;5.422;2023-05-31T06:53:33;19.93;;;9.60;;
64842;SDS011;51310;52.198;5.422;2023-05-31T06:55:58;16.97;;;7.67;;
64842;SDS011;51310;52.198;5.422;2023-05-31T06:58:25;15.67;;;8.13;;
64842;SDS011;51310;52.198;5.422;2023-05-31T07:00:58;16.03;;;7.33;;
64842;SDS011;51310;52.198;5.422;2023-05-31T07:03:23;16.52;;;7.43;;
64842;SDS011;51310;52.198;5.422;2023-05-31T07:05:49;16.17;;;8.38;;
64842;SDS011;51310;52.198;5.422;2023-05-31T07:08:15;19.33;;;9.18;;
64842;SDS011;51310;52.198;5.422;2023-05-31T07:10:41;16.42;;;7.90;;
64842;SDS011;51310;52.198;5.422;2023-05-31T07:13:09;14.68;;;7.80;;
64842;SDS011;51310;52.198;5.422;2023-05-31T07:15:38;19.67;;;8.80;;
64842;SDS011;51310;52.198;5.422;2023-05-31T07:18:04;15.73;;;8.00;;
64842;SDS011;51310;52.198;5.422;2023-05-31T07:20:30;16.92;;;8.07;;
64842;SDS011;51310;52.198;5.422;2023-05-31T07:22:56;13.35;;;7.75;;
64842;SDS011;51310;52.198;5.422;2023-05-31T07:25:22;18.55;;;8.30;;
64842;SDS011;51310;52.198;5.422;2023-05-31T07:27:49;16.67;;;7.15;;
64842;SDS011;51310;52.198;5.422;2023-05-31T07:30:15;15.23;;;8.10;;
64842;SDS011;51310;52.198;5.422;2023-05-31T07:32:40;15.10;;;7.22;;
64842;SDS011;51310;52.198;5.422;2023-05-31T07:35:06;15.63;;;7.05;;
64842;SDS011;51310;52.198;5.422;2023-05-31T07:37:32;13.48;;;7.45;;
64842;SDS011;51310;52.198;5.422;2023-05-31T07:39:58;16.73;;;8.20;;
64842;SDS011;51310;52.198;5.422;2023-05-31T07:42:24;12.63;;;7.45;;
64842;SDS011;51310;52.198;5.422;2023-05-31T07:44:50;17.77;;;7.95;;
64842;SDS011;51310;52.198;5.422;2023-05-31T07:47:16;19.17;;;8.10;;
64842;SDS011;51310;52.198;5.422;2023-05-31T07:49:44;14.73;;;7.50;;
64842;SDS011;51310;52.198;5.422;2023-05-31T07:52:10;18.50;;;8.23;;
64842;SDS011;51310;52.198;5.422;2023-05-31T07:54:35;15.45;;;8.07;;
64842;SDS011;51310;52.198;5.422;2023-05-31T07:57:01;13.38;;;7.38;;
64842;SDS011;51310;52.198;5.422;2023-05-31T07:59:28;15.90;;;7.55;;
64842;SDS011;51310;52.198;5.422;2023-05-31T08:01:54;15.65;;;8.68;;
64842;SDS011;51310;52.198;5.422;2023-05-31T08:04:20;14.85;;;7.68;;
64842;SDS011;51310;52.198;5.422;2023-05-31T08:06:46;16.60;;;8.15;;
64842;SDS011;51310;52.198;5.422;2023-05-31T08:09:12;18.70;;;8.15;;
64842;SDS011;51310;52.198;5.422;2023-05-31T08:11:37;14.82;;;7.20;;
64842;SDS011;51310;52.198;5.422;2023-05-31T08:14:04;17.98;;;8.02;;
64842;SDS011;51310;52.198;5.422;2023-05-31T08:16:31;15.55;;;7.28;;
64842;SDS011;51310;52.198;5.422;2023-05-31T08:18:58;13.63;;;7.22;;
64842;SDS011;51310;52.198;5.422;2023-05-31T08:21:24;16.33;;;7.80;;
64842;SDS011;51310;52.198;5.422;2023-05-31T08:23:50;17.77;;;8.32;;
64842;SDS011;51310;52.198;5.422;2023-05-31T08:26:16;15.07;;;7.93;;
64842;SDS011;51310;52.198;5.422;2023-05-31T08:28:42;17.20;;;7.87;;
64842;SDS011;51310;52.198;5.422;2023-05-31T08:31:07;15.93;;;7.53;;
64842;SDS011;51310;52.198;5.422;2023-05-31T08:33:33;18.02;;;8.77;;
64842;SDS011;51310;52.198;5.422;2023-05-31T08:35:59;14.02;;;7.15;;
64842;SDS011;51310;52.198;5.422;2023-05-31T08:38:29;14.70;;;7.57;;
64842;SDS011;51310;52.198;5.422;2023-05-31T08:41:00;18.35;;;7.28;;
64842;SDS011;51310;52.198;5.422;2023-05-31T08:43:28;19.33;;;8.07;;
64842;SDS011;51310;52.198;5.422;2023-05-31T08:45:56;15.35;;;7.50;;
64842;SDS011;51310;52.198;5.422;2023-05-31T08:48:30;15.55;;;8.07;;
64842;SDS011;51310;52.198;5.422;2023-05-31T08:51:34;14.75;;;6.78;;
64842;SDS011;51310;52.198;5.422;2023-05-31T08:54:02;16.48;;;8.30;;
64842;SDS011;51310;52.198;5.422;2023-05-31T08:56:31;14.43;;;7.78;;
64842;SDS011;51310;52.198;5.422;2023-05-31T08:58:58;12.32;;;7.03;;
64842;SDS011;51310;52.198;5.422;2023-05-31T09:01:24;14.45;;;8.23;;
64842;SDS011;51310;52.198;5.422;2023-05-31T09:03:53;11.95;;;6.53;;
64842;SDS011;51310;52.198;5.422;2023-05-31T09:06:19;14.80;;;7.15;;
64842;SDS011;51310;52.198;5.422;2023-05-31T09:08:45;17.63;;;7.97;;
64842;SDS011;51310;52.198;5.422;2023-05-31T09:11:12;19.52;;;7.35;;
64842;SDS011;51310;52.198;5.422;2023-05-31T09:13:38;18.25;;;8.15;;
64842;SDS011;51310;52.198;5.422;2023-05-31T09:16:05;17.30;;;7.22;;
64842;SDS011;51310;52.198;5.422;2023-05-31T09:18:38;16.67;;;7.20;;
64842;SDS011;51310;52.198;5.422;2023-05-31T09:21:11;15.70;;;7.25;;
64842;SDS011;51310;52.198;5.422;2023-05-31T09:23:58;18.60;;;7.18;;
64842;SDS011;51310;52.198;5.422;2023-05-31T09:26:25;12.98;;;7.13;;
64842;SDS011;51310;52.198;5.422;2023-05-31T09:28:52;20.75;;;6.97;;
64842;SDS011;51310;52.198;5.422;2023-05-31T09:31:19;16.40;;;7.07;;
64842;SDS011;51310;52.198;5.422;2023-05-31T09:33:47;14.40;;;6.15;;
64842;SDS011;51310;52.198;5.422;2023-05-31T09:36:22;13.95;;;7.22;;
64842;SDS011;51310;52.198;5.422;2023-05-31T09:38:51;14.00;;;5.97;;
64842;SDS011;51310;52.198;5.422;2023-05-31T09:41:33;15.27;;;7.10;;
64842;SDS011;51310;52.198;5.422;2023-05-31T09:44:00;10.18;;;5.40;;
64842;SDS011;51310;52.198;5.422;2023-05-31T09:46:26;13.25;;;6.55;;
64842;SDS011;51310;52.198;5.422;2023-05-31T09:49:02;12.45;;;5.97;;
64842;SDS011;51310;52.198;5.422;2023-05-31T09:51:31;12.73;;;6.45;;
64842;SDS011;51310;52.198;5.422;2023-05-31T09:54:17;14.32;;;6.05;;
64842;SDS011;51310;52.198;5.422;2023-05-31T09:56:47;13.02;;;6.10;;
64842;SDS011;51310;52.198;5.422;2023-05-31T09:59:14;13.82;;;6.15;;
64842;SDS011;51310;52.198;5.422;2023-05-31T10:01:40;17.93;;;5.87;;
64842;SDS011;51310;52.198;5.422;2023-05-31T10:04:08;14.82;;;6.25;;
64842;SDS011;51310;52.198;5.422;2023-05-31T10:06:34;13.85;;;5.22;;
64842;SDS011;51310;52.198;5.422;2023-05-31T10:09:04;12.93;;;5.97;;
64842;SDS011;51310;52.198;5.422;2023-05-31T10:11:33;16.90;;;6.28;;
64842;SDS011;51310;52.198;5.422;2023-05-31T10:14:10;16.05;;;6.53;;
64842;SDS011;51310;52.198;5.422;2023-05-31T10:16:53;14.50;;;6.43;;
64842;SDS011;51310;52.198;5.422;2023-05-31T10:19:22;14.98;;;6.03;;
64842;SDS011;51310;52.198;5.422;2023-05-31T10:21:56;14.35;;;6.80;;
64842;SDS011;51310;52.198;5.422;2023-05-31T10:24:42;10.13;;;5.53;;
64842;SDS011;51310;52.198;5.422;2023-05-31T10:27:35;11.68;;;6.05;;
64842;SDS011;51310;52.198;5.422;2023-05-31T10:30:03;12.23;;;6.22;;
64842;SDS011;51310;52.198;5.422;2023-05-31T10:32:34;8.85;;;5.30;;
64842;SDS011;51310;52.198;5.422;2023-05-31T10:35:08;14.53;;;5.53;;
64842;SDS011;51310;52.198;5.422;2023-05-31T10:37:35;12.77;;;5.60;;
64842;SDS011;51310;52.198;5.422;2023-05-31T10:40:10;14.88;;;5.85;;
64842;SDS011;51310;52.198;5.422;2023-05-31T10:46:03;11.43;;;5.90;;
64842;SDS011;51310;52.198;5.422;2023-05-31T10:48:39;13.13;;;5.93;;
64842;SDS011;51310;52.198;5.422;2023-05-31T10:51:23;11.63;;;5.30;;
64842;SDS011;51310;52.198;5.422;2023-05-31T10:54:04;11.05;;;5.53;;
64842;SDS011;51310;52.198;5.422;2023-05-31T10:56:30;12.65;;;5.90;;
64842;SDS011;51310;52.198;5.422;2023-05-31T10:58:56;12.65;;;5.60;;
64842;SDS011;51310;52.198;5.422;2023-05-31T11:01:22;11.25;;;4.85;;
64842;SDS011;51310;52.198;5.422;2023-05-31T11:03:54;14.52;;;6.28;;
64842;SDS011;51310;52.198;5.422;2023-05-31T11:06:29;15.90;;;6.50;;
64842;SDS011;51310;52.198;5.422;2023-05-31T11:09:01;13.57;;;5.90;;
64842;SDS011;51310;52.198;5.422;2023-05-31T11:21:56;11.70;;;4.80;;
64842;SDS011;51310;52.198;5.422;2023-05-31T11:24:51;8.90;;;4.78;;
64842;SDS011;51310;52.198;5.422;2023-05-31T11:27:36;8.10;;;4.50;;
64842;SDS011;51310;52.198;5.422;2023-05-31T11:30:07;12.73;;;5.28;;
64842;SDS011;51310;52.198;5.422;2023-05-31T11:35:03;9.63;;;4.15;;
64842;SDS011;51310;52.198;5.422;2023-05-31T11:37:34;13.13;;;4.63;;
64842;SDS011;51310;52.198;5.422;2023-05-31T11:40:06;8.50;;;4.00;;
64842;SDS011;51310;52.198;5.422;2023-05-31T11:42:39;12.18;;;5.22;;
64842;SDS011;51310;52.198;5.422;2023-05-31T11:50:31;14.57;;;4.80;;
64842;SDS011;51310;52.198;5.422;2023-05-31T11:52:57;10.93;;;5.37;;
64842;SDS011;51310;52.198;5.422;2023-05-31T11:55:31;10.25;;;3.75;;
64842;SDS011;51310;52.198;5.422;2023-05-31T11:57:58;12.93;;;3.95;;
64842;SDS011;51310;52.198;5.422;2023-05-31T12:00:24;16.00;;;4.90;;
64842;SDS011;51310;52.198;5.422;2023-05-31T12:02:51;8.30;;;3.30;;
64842;SDS011;51310;52.198;5.422;2023-05-31T12:05:19;9.57;;;4.53;;
64842;SDS011;51310;52.198;5.422;2023-05-31T12:07:47;13.33;;;4.00;;
64842;SDS011;51310;52.198;5.422;2023-05-31T12:10:18;11.45;;;3.60;;
64842;SDS011;51310;52.198;5.422;2023-05-31T12:12:45;6.28;;;3.17;;
64842;SDS011;51310;52.198;5.422;2023-05-31T12:15:12;6.10;;;2.88;;
64842;SDS011;51310;52.198;5.422;2023-05-31T12:17:39;10.02;;;3.10;;
64842;SDS011;51310;52.198;5.422;2023-05-31T12:20:05;11.05;;;3.30;;
64842;SDS011;51310;52.198;5.422;2023-05-31T12:22:32;6.20;;;3.50;;
64842;SDS011;51310;52.198;5.422;2023-05-31T12:24:59;8.13;;;3.58;;
64842;SDS011;51310;52.198;5.422;2023-05-31T12:27:26;11.63;;;3.53;;
64842;SDS011;51310;52.198;5.422;2023-05-31T12:29:55;10.40;;;4.10;;
64842;SDS011;51310;52.198;5.422;2023-05-31T12:32:28;6.68;;;3.20;;
64842;SDS011;51310;52.198;5.422;2023-05-31T12:35:09;7.78;;;3.22;;
64842;SDS011;51310;52.198;5.422;2023-05-31T12:37:36;8.77;;;3.60;;
64842;SDS011;51310;52.198;5.422;2023-05-31T12:40:16;8.60;;;3.40;;
64842;SDS011;51310;52.198;5.422;2023-05-31T12:42:47;12.90;;;3.78;;
64842;SDS011;51310;52.198;5.422;2023-05-31T12:45:16;9.33;;;3.30;;
64842;SDS011;51310;52.198;5.422;2023-05-31T12:47:52;11.00;;;3.40;;
64842;SDS011;51310;52.198;5.422;2023-05-31T12:50:22;7.35;;;3.30;;
64842;SDS011;51310;52.198;5.422;2023-05-31T12:52:54;9.30;;;3.30;;
64842;SDS011;51310;52.198;5.422;2023-05-31T12:55:23;9.45;;;3.47;;
64842;SDS011;51310;52.198;5.422;2023-05-31T12:57:49;6.78;;;2.50;;
64842;SDS011;51310;52.198;5.422;2023-05-31T13:00:16;9.65;;;3.40;;
64842;SDS011;51310;52.198;5.422;2023-05-31T13:02:43;8.55;;;3.20;;
64842;SDS011;51310;52.198;5.422;2023-05-31T13:05:09;11.93;;;3.00;;
64842;SDS011;51310;52.198;5.422;2023-05-31T13:07:35;8.73;;;3.53;;
64842;SDS011;51310;52.198;5.422;2023-05-31T13:10:03;6.45;;;3.08;;
64842;SDS011;51310;52.198;5.422;2023-05-31T13:12:29;10.13;;;4.30;;
64842;SDS011;51310;52.198;5.422;2023-05-31T13:14:55;12.57;;;6.97;;
64842;SDS011;51310;52.198;5.422;2023-05-31T13:17:21;17.02;;;6.78;;
64842;SDS011;51310;52.198;5.422;2023-05-31T13:19:46;15.02;;;7.05;;
64842;SDS011;51310;52.198;5.422;2023-05-31T13:22:12;10.80;;;5.75;;
64842;SDS011;51310;52.198;5.422;2023-05-31T13:24:38;12.88;;;5.47;;
64842;SDS011;51310;52.198;5.422;2023-05-31T13:27:04;10.93;;;5.57;;
64842;SDS011;51310;52.198;5.422;2023-05-31T13:29:32;10.27;;;5.07;;
64842;SDS011;51310;52.198;5.422;2023-05-31T13:31:58;9.75;;;5.70;;
64842;SDS011;51310;52.198;5.422;2023-05-31T13:34:24;14.75;;;7.18;;
64842;SDS011;51310;52.198;5.422;2023-05-31T13:36:50;14.63;;;6.47;;
64842;SDS011;51310;52.198;5.422;2023-05-31T13:39:16;14.77;;;6.90;;
64842;SDS011;51310;52.198;5.422;2023-05-31T13:41:42;10.97;;;5.80;;
64842;SDS011;51310;52.198;5.422;2023-05-31T13:44:11;15.93;;;6.70;;
64842;SDS011;51310;52.198;5.422;2023-05-31T13:46:38;9.50;;;3.87;;
64842;SDS011;51310;52.198;5.422;2023-05-31T13:49:04;11.10;;;5.38;;
64842;SDS011;51310;52.198;5.422;2023-05-31T13:51:30;11.70;;;6.03;;
64842;SDS011;51310;52.198;5.422;2023-05-31T13:53:56;19.52;;;6.90;;
64842;SDS011;51310;52.198;5.422;2023-05-31T13:56:22;15.52;;;5.63;;
64842;SDS011;51310;52.198;5.422;2023-05-31T13:58:48;15.50;;;6.82;;
64842;SDS011;51310;52.198;5.422;2023-05-31T14:01:14;10.98;;;6.18;;
64842;SDS011;51310;52.198;5.422;2023-05-31T14:03:40;14.32;;;6.85;;
64842;SDS011;51310;52.198;5.422;2023-05-31T14:06:06;17.08;;;6.75;;
64842;SDS011;51310;52.198;5.422;2023-05-31T14:08:33;12.53;;;6.23;;
64842;SDS011;51310;52.198;5.422;2023-05-31T14:11:00;13.95;;;6.47;;
64842;SDS011;51310;52.198;5.422;2023-05-31T14:13:26;12.05;;;6.07;;
64842;SDS011;51310;52.198;5.422;2023-05-31T14:15:54;17.17;;;7.25;;
64842;SDS011;51310;52.198;5.422;2023-05-31T14:18:19;13.32;;;6.80;;
64842;SDS011;51310;52.198;5.422;2023-05-31T14:20:45;15.27;;;6.65;;
64842;SDS011;51310;52.198;5.422;2023-05-31T14:23:14;15.02;;;6.63;;
64842;SDS011;51310;52.198;5.422;2023-05-31T14:25:40;17.73;;;6.32;;
64842;SDS011;51310;52.198;5.422;2023-05-31T14:28:06;14.60;;;6.25;;
64842;SDS011;51310;52.198;5.422;2023-05-31T14:30:31;11.63;;;6.57;;
64842;SDS011;51310;52.198;5.422;2023-05-31T14:32:57;10.60;;;6.20;;
64842;SDS011;51310;52.198;5.422;2023-05-31T14:35:23;14.10;;;6.20;;
64842;SDS011;51310;52.198;5.422;2023-05-31T14:37:51;15.82;;;6.82;;
64842;SDS011;51310;52.198;5.422;2023-05-31T14:40:17;13.75;;;6.40;;
64842;SDS011;51310;52.198;5.422;2023-05-31T14:42:42;11.15;;;5.97;;
64842;SDS011;51310;52.198;5.422;2023-05-31T14:45:08;15.60;;;6.75;;
64842;SDS011;51310;52.198;5.422;2023-05-31T14:47:34;14.17;;;6.63;;
64842;SDS011;51310;52.198;5.422;2023-05-31T14:50:01;16.10;;;6.93;;
64842;SDS011;51310;52.198;5.422;2023-05-31T14:52:28;12.32;;;7.53;;
64842;SDS011;51310;52.198;5.422;2023-05-31T14:54:54;16.17;;;6.90;;
64842;SDS011;51310;52.198;5.422;2023-05-31T14:57:20;16.30;;;7.30;;
64842;SDS011;51310;52.198;5.422;2023-05-31T14:59:46;12.82;;;6.30;;
64842;SDS011;51310;52.198;5.422;2023-05-31T15:02:12;13.60;;;6.22;;